YLEC

Details ICAO YLEC
Name Leigh Creek
Region Australia
Timezone Australia/Adelaide (UTC+10.5)
Plans Departing 8
Arriving 9
Stats Elevation 856 ft / 261 m (AMSL)
Location -30.599346° 138.427473°
Runways 2
Magnetic Variation 7.028° E
Sunrise 2017-12-11 19:38:36 UTC / 2017-12-12 06:08:36 Local
Sunset 2017-12-12 09:43:58 UTC / 2017-12-12 20:13:58 Local
Advertisement - Login to hide

Runways

ID Width Length Bearing (true) Bearing (mag) Surface Threshold Offset Overrun Length
11 98 ft / 30 m 5,601 ft / 1,707 m 121.00° 113.97° Asphalt 0 ft / 0 m 0 ft / 0 m
2 85 ft / 26 m 4,025 ft / 1,227 m 29.90° 22.87° Asphalt 0 ft / 0 m 0 ft / 0 m
20 85 ft / 26 m 4,025 ft / 1,227 m 209.90° 202.87° Asphalt 0 ft / 0 m 0 ft / 0 m
29 98 ft / 30 m 5,601 ft / 1,707 m 301.00° 293.97° Asphalt 0 ft / 0 m 0 ft / 0 m

Map

Weather


0- 5 10 15 20 25 30 35+ Temperature / ° C

Clouds and Precipitation
Forecast for 2017-12-12 18:00 UTC. Updated an hour ago

Ground ~20,000 ft ~40,000 ft Winds

METAR

YLEC 121400Z AUTO 11002KT //// // ////// 27/02 Q1010

TAF

Not found

Frequencies

Unicom 126.70 MHz Leigh Creek UNICOM
Warning: Do not use this data for real-world aviation or navigation. No guarantee of current accuracy is given.